createdAt,value
2018-12-17T00:00:00.165Z,1.21
2018-12-17T00:02:30.178Z,1.22
2018-12-17T00:05:02.286Z,1.19
2018-12-17T00:07:34.348Z,1.19
2018-12-17T00:10:05.342Z,1.13
2018-12-17T00:12:35.397Z,1.09
2018-12-17T00:15:05.736Z,1.13
2018-12-17T00:17:35.835Z,1.10
2018-12-17T00:20:06.607Z,1.14
2018-12-17T00:22:36.563Z,1.15
2018-12-17T00:25:06.908Z,1.13
2018-12-17T00:27:37.001Z,1.14
2018-12-17T00:30:08.102Z,1.16
2018-12-17T00:32:38.243Z,1.13
2018-12-17T00:35:08.379Z,1.19
2018-12-17T00:37:38.449Z,1.18
2018-12-17T00:40:09.053Z,1.22
2018-12-17T00:42:39.061Z,1.26
2018-12-17T00:45:09.270Z,1.20
2018-12-17T00:47:39.363Z,1.18
2018-12-17T00:50:09.278Z,1.25
2018-12-17T00:52:39.540Z,1.26
2018-12-17T00:55:09.628Z,1.25
2018-12-17T00:57:39.609Z,1.24
2018-12-17T01:00:10.562Z,1.21
2018-12-17T01:02:41.142Z,1.20
2018-12-17T01:05:11.167Z,1.20
2018-12-17T01:07:41.238Z,1.25
2018-12-17T01:10:11.535Z,1.32
2018-12-17T01:12:41.495Z,1.35
2018-12-17T01:15:11.641Z,1.32
2018-12-17T01:17:41.620Z,1.36
2018-12-17T01:20:12.012Z,1.34
2018-12-17T01:22:42.049Z,1.29
2018-12-17T01:25:12.069Z,1.36
2018-12-17T01:27:42.284Z,1.38
2018-12-17T01:30:12.360Z,1.36
2018-12-17T01:32:42.410Z,1.35
2018-12-17T01:35:12.548Z,1.36
2018-12-17T01:37:42.553Z,1.35
2018-12-17T01:40:12.691Z,1.41
2018-12-17T01:42:42.933Z,1.37
2018-12-17T01:45:14.669Z,1.37
2018-12-17T01:47:44.680Z,1.37
2018-12-17T01:50:14.847Z,1.42
2018-12-17T01:52:44.786Z,1.45
2018-12-17T01:55:14.881Z,1.40
2018-12-17T01:57:44.844Z,1.43
2018-12-17T02:00:15.047Z,1.45
2018-12-17T02:02:45.119Z,1.50
2018-12-17T02:05:15.410Z,1.44
2018-12-17T02:07:45.496Z,1.42
2018-12-17T02:10:15.455Z,1.44
2018-12-17T02:12:51.378Z,1.51
2018-12-17T02:15:21.396Z,1.46
2018-12-17T02:17:51.520Z,1.40
2018-12-17T02:20:21.567Z,1.40
2018-12-17T02:22:51.665Z,1.41
2018-12-17T02:25:21.664Z,1.44
2018-12-17T02:27:51.665Z,1.43
2018-12-17T02:30:21.660Z,1.47
2018-12-17T02:32:51.641Z,1.46
2018-12-17T02:35:21.704Z,1.48
2018-12-17T02:37:52.204Z,1.52
2018-12-17T02:40:25.907Z,1.48
2018-12-17T02:42:59.151Z,1.46
2018-12-17T02:45:29.141Z,1.48
2018-12-17T02:48:02.497Z,1.48
2018-12-17T02:50:32.441Z,1.49
2018-12-17T02:53:26.408Z,1.54
2018-12-17T02:55:56.387Z,1.51
2018-12-17T02:58:26.403Z,1.52
2018-12-17T03:00:57.471Z,1.44
2018-12-17T03:03:40.002Z,1.54
2018-12-17T03:06:10.024Z,1.47
2018-12-17T03:08:43.832Z,1.53
2018-12-17T03:11:13.957Z,1.47
2018-12-17T03:13:43.922Z,1.54
2018-12-17T03:16:25.198Z,1.53
2018-12-17T03:19:03.055Z,1.54
2018-12-17T03:24:29.406Z,1.46
2018-12-17T03:26:59.373Z,1.49
2018-12-17T03:29:31.242Z,1.47
2018-12-17T03:32:01.684Z,1.45
2018-12-17T03:34:37.479Z,1.48
2018-12-17T03:37:07.429Z,1.52
2018-12-17T03:39:37.400Z,1.52
2018-12-17T03:42:07.509Z,1.52
2018-12-17T03:44:37.397Z,1.51
2018-12-17T03:47:09.463Z,1.49
2018-12-17T03:49:39.537Z,1.56
2018-12-17T03:52:09.534Z,1.52
2018-12-17T03:54:39.449Z,1.68
2018-12-17T03:57:09.434Z,1.61
2018-12-17T03:59:39.533Z,1.53
2018-12-17T04:02:09.535Z,1.49
2018-12-17T04:04:39.779Z,1.54
2018-12-17T04:07:29.363Z,1.55
2018-12-17T04:09:59.482Z,1.49
2018-12-17T04:12:29.457Z,1.49
2018-12-17T04:15:11.219Z,1.47
2018-12-17T04:17:46.996Z,1.48
2018-12-17T04:20:23.072Z,1.53
2018-12-17T04:22:57.873Z,1.53
2018-12-17T04:25:30.839Z,1.49
2018-12-17T04:28:00.830Z,1.55
2018-12-17T04:30:30.787Z,1.57
2018-12-17T04:33:00.791Z,1.53
2018-12-17T04:35:30.772Z,1.57
2018-12-17T04:38:00.768Z,1.55
2018-12-17T04:40:30.736Z,1.55
2018-12-17T04:43:00.983Z,1.54
2018-12-17T04:45:30.959Z,1.61
2018-12-17T04:48:01.031Z,1.60
2018-12-17T04:50:31.154Z,1.61
2018-12-17T04:53:01.210Z,1.58
2018-12-17T04:55:31.396Z,1.53
2018-12-17T04:58:01.721Z,1.52
2018-12-17T05:00:31.786Z,1.49
2018-12-17T05:03:01.693Z,1.60
2018-12-17T05:05:31.662Z,1.61
2018-12-17T05:08:02.763Z,1.55
2018-12-17T05:10:34.589Z,1.51
2018-12-17T05:13:21.009Z,1.57
2018-12-17T05:15:51.236Z,1.53
2018-12-17T05:18:21.341Z,1.56
2018-12-17T05:20:51.207Z,1.57
2018-12-17T05:23:21.265Z,1.61
2018-12-17T05:25:51.608Z,1.57
2018-12-17T05:28:23.703Z,1.58
2018-12-17T05:30:53.871Z,1.57
2018-12-17T05:36:10.897Z,1.61
2018-12-17T05:38:42.462Z,1.58
2018-12-17T05:41:18.625Z,1.60
2018-12-17T05:43:48.789Z,1.62
2018-12-17T05:46:18.835Z,1.60
2018-12-17T05:48:48.812Z,1.60
2018-12-17T05:51:22.032Z,1.61
2018-12-17T05:53:52.165Z,1.65
2018-12-17T05:56:22.231Z,1.60
2018-12-17T05:58:52.254Z,1.58
2018-12-17T06:01:22.231Z,1.58
2018-12-17T06:03:52.231Z,1.60
2018-12-17T06:06:22.410Z,1.59
2018-12-17T06:08:52.379Z,1.66
2018-12-17T06:11:22.617Z,1.62
2018-12-17T06:13:52.964Z,1.60
2018-12-17T06:16:23.481Z,1.63
2018-12-17T06:18:53.466Z,1.65
2018-12-17T06:21:23.575Z,1.63
2018-12-17T06:23:53.749Z,1.61
2018-12-17T06:26:23.573Z,1.61
2018-12-17T06:28:53.877Z,1.69
2018-12-17T06:31:23.847Z,1.69
2018-12-17T06:33:53.976Z,1.70
2018-12-17T06:36:27.407Z,1.71
2018-12-17T06:38:57.474Z,1.70
2018-12-17T06:41:27.436Z,1.70
2018-12-17T06:43:57.294Z,1.69
2018-12-17T06:46:27.363Z,1.66
2018-12-17T06:48:57.319Z,1.70
2018-12-17T06:51:27.488Z,1.73
2018-12-17T06:53:57.452Z,1.75
2018-12-17T06:56:27.470Z,1.76
2018-12-17T06:58:57.322Z,1.79
2018-12-17T07:01:28.180Z,1.85
2018-12-17T07:03:58.331Z,1.79
2018-12-17T07:06:28.244Z,1.76
2018-12-17T07:08:58.297Z,1.73
2018-12-17T07:11:28.311Z,1.79
2018-12-17T07:13:58.217Z,1.82
2018-12-17T07:16:28.529Z,1.76
2018-12-17T07:18:58.495Z,1.81
2018-12-17T07:21:28.461Z,1.80
2018-12-17T07:27:38.867Z,1.93
2018-12-17T07:30:09.340Z,1.89
2018-12-17T07:32:39.286Z,1.86
2018-12-17T07:35:09.257Z,1.86
2018-12-17T07:37:39.250Z,1.85
2018-12-17T07:40:09.490Z,1.87
2018-12-17T07:42:39.587Z,1.86
2018-12-17T07:45:09.949Z,1.87
2018-12-17T07:47:42.006Z,1.95
2018-12-17T07:50:13.369Z,1.87
2018-12-17T07:52:43.403Z,1.89
2018-12-17T07:55:13.761Z,1.88
2018-12-17T07:57:45.477Z,1.93
2018-12-17T08:00:17.392Z,2.00
2018-12-17T08:02:48.792Z,2.00
2018-12-17T08:05:18.854Z,1.95
2018-12-17T08:07:48.835Z,2.01
2018-12-17T08:10:20.823Z,2.03
2018-12-17T08:12:50.839Z,2.07
2018-12-17T08:15:21.337Z,2.03
2018-12-17T08:18:01.527Z,2.19
2018-12-17T08:20:31.706Z,2.17
2018-12-17T08:23:01.956Z,2.15
2018-12-17T08:25:32.408Z,2.14
2018-12-17T08:28:02.393Z,2.13
2018-12-17T08:30:32.633Z,2.10
2018-12-17T08:33:02.811Z,2.17
2018-12-17T08:35:34.546Z,2.19
2018-12-17T08:38:06.850Z,2.23
2018-12-17T08:40:37.185Z,2.21
2018-12-17T08:43:07.361Z,2.19
2018-12-17T08:45:37.568Z,2.31
2018-12-17T08:48:07.545Z,2.30
2018-12-17T08:50:38.914Z,2.33
2018-12-17T08:53:09.294Z,2.38
2018-12-17T08:55:40.359Z,2.41
2018-12-17T08:58:10.631Z,2.40
2018-12-17T09:00:40.592Z,2.40
2018-12-17T09:03:10.727Z,2.49
2018-12-17T09:05:41.302Z,2.54
2018-12-17T09:08:13.073Z,2.55
2018-12-17T09:10:43.218Z,2.54
2018-12-17T09:13:13.370Z,2.56
2018-12-17T09:15:43.635Z,2.59
2018-12-17T09:18:15.449Z,2.58
2018-12-17T09:20:45.611Z,2.55
2018-12-17T09:23:16.042Z,2.56
2018-12-17T09:25:46.191Z,2.58
2018-12-17T09:28:17.186Z,2.64
2018-12-17T09:30:47.160Z,2.62
2018-12-17T09:33:17.089Z,2.64
2018-12-17T09:35:47.053Z,2.63
2018-12-17T09:38:17.004Z,2.60
2018-12-17T09:40:46.995Z,2.66
2018-12-17T09:43:17.167Z,2.72
2018-12-17T09:45:47.138Z,2.70
2018-12-17T09:48:17.068Z,2.71
2018-12-17T09:50:47.234Z,2.77
2018-12-17T09:53:17.205Z,2.83
2018-12-17T09:55:47.159Z,2.84
2018-12-17T09:58:17.126Z,2.84
2018-12-17T10:00:47.335Z,2.85
2018-12-17T10:03:17.480Z,2.78
2018-12-17T10:05:47.670Z,2.80
2018-12-17T10:08:17.620Z,2.78
2018-12-17T10:10:47.699Z,2.75
2018-12-17T10:13:17.629Z,2.77
2018-12-17T10:15:47.693Z,2.73
2018-12-17T10:18:17.757Z,2.76
2018-12-17T10:20:47.926Z,2.84
2018-12-17T10:23:17.898Z,2.84
2018-12-17T10:25:47.821Z,2.92
2018-12-17T10:28:18.427Z,2.90
2018-12-17T10:30:48.474Z,2.91
2018-12-17T10:33:18.413Z,2.98
2018-12-17T10:35:48.481Z,3.07
2018-12-17T10:38:18.551Z,3.19
2018-12-17T10:40:48.627Z,3.19
2018-12-17T10:43:18.543Z,3.31
2018-12-17T10:45:50.180Z,3.29
2018-12-17T10:48:21.241Z,3.27
2018-12-17T10:50:51.209Z,3.25
2018-12-17T10:53:21.248Z,3.26
2018-12-17T10:55:53.057Z,3.27
2018-12-17T10:58:23.110Z,3.31
2018-12-17T11:00:58.329Z,3.35
2018-12-17T11:03:32.837Z,3.39
2018-12-17T11:06:05.618Z,3.36
2018-12-17T11:08:36.613Z,3.29
2018-12-17T11:11:06.891Z,3.36
2018-12-17T11:13:36.903Z,3.38
2018-12-17T11:16:06.871Z,3.39
2018-12-17T11:18:36.858Z,3.45
2018-12-17T11:21:06.938Z,3.37
2018-12-17T11:23:36.970Z,3.37
2018-12-17T11:26:06.966Z,3.41
2018-12-17T11:28:37.083Z,3.46
2018-12-17T11:31:07.007Z,3.37
2018-12-17T11:33:37.204Z,3.45
2018-12-17T11:36:07.130Z,3.43
2018-12-17T11:38:38.555Z,3.46
2018-12-17T11:41:10.147Z,3.52
2018-12-17T11:43:43.933Z,3.52
2018-12-17T11:46:14.095Z,3.56
2018-12-17T11:48:44.389Z,3.56
2018-12-17T11:51:14.514Z,3.56
2018-12-17T11:53:44.520Z,3.53
2018-12-17T11:56:14.484Z,3.54
2018-12-17T11:58:44.742Z,3.58
2018-12-17T12:01:18.474Z,3.61
2018-12-17T12:03:48.410Z,3.69
2018-12-17T12:06:18.885Z,3.70
2018-12-17T12:08:49.159Z,3.74
2018-12-17T12:11:19.047Z,3.74
2018-12-17T12:13:48.970Z,3.81
2018-12-17T12:16:19.017Z,3.85
2018-12-17T12:18:49.048Z,3.76
2018-12-17T12:21:18.982Z,3.85
2018-12-17T12:23:48.929Z,3.84
2018-12-17T12:26:19.034Z,3.86
2018-12-17T12:28:48.968Z,3.87
2018-12-17T12:31:18.951Z,3.80
2018-12-17T12:33:48.860Z,3.82
2018-12-17T12:36:19.038Z,3.91
2018-12-17T12:38:49.159Z,3.91
2018-12-17T12:41:19.117Z,3.95
2018-12-17T12:43:48.950Z,3.94
2018-12-17T12:46:18.931Z,3.92
2018-12-17T12:48:48.898Z,3.98
2018-12-17T12:51:18.879Z,4.05
2018-12-17T12:53:48.814Z,4.05
2018-12-17T12:56:18.637Z,4.05
2018-12-17T12:58:48.608Z,4.03
2018-12-17T13:01:18.522Z,4.09
2018-12-17T13:03:48.544Z,4.01
2018-12-17T13:06:18.656Z,4.10
2018-12-17T13:08:49.146Z,4.08
2018-12-17T13:11:19.101Z,4.06
2018-12-17T13:13:49.166Z,4.09
2018-12-17T13:16:19.175Z,4.14
2018-12-17T13:18:49.129Z,4.17
2018-12-17T13:21:19.117Z,4.13
2018-12-17T13:23:49.241Z,4.02
2018-12-17T13:26:19.239Z,4.12
2018-12-17T13:28:49.059Z,4.16
2018-12-17T13:31:19.182Z,4.20
2018-12-17T13:33:49.194Z,4.13
2018-12-17T13:36:19.255Z,4.10
2018-12-17T13:38:49.185Z,4.11
2018-12-17T13:41:19.035Z,4.10
2018-12-17T13:43:49.167Z,4.11
2018-12-17T13:46:19.218Z,4.10
2018-12-17T13:48:49.375Z,4.09
2018-12-17T13:51:24.599Z,4.13
2018-12-17T13:54:00.239Z,4.09
2018-12-17T13:56:31.926Z,4.11
2018-12-17T13:59:02.107Z,4.10
2018-12-17T14:01:32.195Z,4.15
2018-12-17T14:04:02.241Z,4.14
2018-12-17T14:06:32.212Z,4.16
2018-12-17T14:09:02.094Z,4.10
2018-12-17T14:11:33.258Z,4.11
2018-12-17T14:14:03.254Z,4.08
2018-12-17T14:16:38.650Z,4.09
2018-12-17T14:19:13.753Z,4.06
2018-12-17T14:21:49.050Z,4.07
2018-12-17T14:24:18.921Z,4.10
2018-12-17T14:26:49.191Z,4.09
2018-12-17T14:29:19.055Z,4.07
2018-12-17T14:31:49.062Z,4.07
2018-12-17T14:34:18.938Z,4.04
2018-12-17T14:36:48.904Z,4.04
2018-12-17T14:39:18.792Z,4.09
2018-12-17T14:41:48.715Z,4.03
2018-12-17T14:44:23.978Z,4.03
2018-12-17T14:46:59.704Z,4.02
2018-12-17T14:49:30.072Z,4.03
2018-12-17T14:52:01.770Z,4.00
2018-12-17T14:54:32.013Z,4.00
2018-12-17T14:57:02.016Z,4.08
2018-12-17T14:59:33.171Z,4.06
2018-12-17T15:02:03.071Z,4.01
2018-12-17T15:04:33.188Z,4.05
2018-12-17T15:07:03.597Z,4.09
2018-12-17T15:09:34.223Z,4.07
2018-12-17T15:12:04.123Z,4.08
2018-12-17T15:14:34.181Z,4.07
2018-12-17T15:17:04.157Z,4.11
2018-12-17T15:19:34.094Z,4.08
2018-12-17T15:22:04.322Z,4.02
2018-12-17T15:24:40.255Z,4.05
2018-12-17T15:27:06.513Z,4.05
2018-12-17T15:29:36.480Z,4.05
2018-12-17T15:32:06.397Z,4.08
2018-12-17T15:34:36.575Z,4.09
2018-12-17T15:37:06.556Z,4.07
2018-12-17T15:39:36.494Z,4.05
2018-12-17T15:42:06.486Z,4.07
2018-12-17T15:44:36.406Z,4.06
2018-12-17T15:47:06.985Z,4.05
2018-12-17T15:49:37.635Z,4.08
2018-12-17T15:52:08.558Z,4.07
2018-12-17T15:54:38.664Z,4.08
2018-12-17T15:57:08.650Z,4.06
2018-12-17T15:59:39.562Z,4.03
2018-12-17T16:02:11.524Z,4.01
2018-12-17T16:04:41.669Z,4.02
2018-12-17T16:07:11.818Z,4.02
2018-12-17T16:09:41.773Z,4.03
2018-12-17T16:12:12.046Z,4.05
2018-12-17T16:14:42.203Z,4.06
2018-12-17T16:17:12.181Z,4.05
2018-12-17T16:19:42.169Z,4.11
2018-12-17T16:22:12.139Z,4.09
2018-12-17T16:24:42.307Z,4.10
2018-12-17T16:27:19.035Z,4.06
2018-12-17T16:29:44.579Z,4.10
2018-12-17T16:32:14.528Z,4.07
2018-12-17T16:34:44.540Z,4.07
2018-12-17T16:37:14.559Z,4.08
2018-12-17T16:39:44.565Z,4.09
2018-12-17T16:42:14.518Z,4.12
2018-12-17T16:44:44.768Z,4.14
2018-12-17T16:47:14.781Z,4.09
2018-12-17T16:49:45.811Z,4.12
2018-12-17T16:52:15.746Z,4.14
2018-12-17T16:54:45.679Z,4.16
2018-12-17T16:57:15.658Z,4.13
2018-12-17T16:59:45.599Z,4.17
2018-12-17T17:02:15.545Z,4.17
2018-12-17T17:04:45.606Z,4.14
2018-12-17T17:07:16.001Z,4.20
2018-12-17T17:09:46.005Z,4.19
2018-12-17T17:12:16.074Z,4.19
2018-12-17T17:14:46.066Z,4.20
2018-12-17T17:17:15.988Z,4.19
2018-12-17T17:19:50.813Z,4.25
2018-12-17T17:22:18.953Z,4.26
2018-12-17T17:24:49.320Z,4.29
2018-12-17T17:27:19.142Z,4.25
2018-12-17T17:29:49.553Z,4.26
2018-12-17T17:32:19.523Z,4.26
2018-12-17T17:34:49.570Z,4.28
2018-12-17T17:37:19.557Z,4.29
2018-12-17T17:40:13.899Z,4.30
2018-12-17T17:42:43.972Z,4.30
2018-12-17T17:45:13.982Z,4.40
2018-12-17T17:47:44.043Z,4.39
2018-12-17T17:50:15.185Z,4.39
2018-12-17T17:52:45.144Z,4.41
2018-12-17T17:55:15.343Z,4.41
2018-12-17T17:57:45.387Z,4.42
2018-12-17T18:00:15.487Z,4.44
2018-12-17T18:02:45.645Z,4.42
2018-12-17T18:05:19.796Z,4.42
2018-12-17T18:07:51.596Z,4.46
2018-12-17T18:10:21.721Z,4.50
2018-12-17T18:12:51.794Z,4.53
2018-12-17T18:15:21.875Z,4.53
2018-12-17T18:17:51.936Z,4.55
2018-12-17T18:20:22.011Z,4.54
2018-12-17T18:22:52.137Z,4.57
2018-12-17T18:25:22.220Z,4.60
2018-12-17T18:27:56.855Z,4.61
2018-12-17T18:30:26.839Z,4.63
2018-12-17T18:32:56.981Z,4.61
2018-12-17T18:35:27.676Z,4.62
2018-12-17T18:37:57.745Z,4.62
2018-12-17T18:40:27.908Z,4.64
2018-12-17T18:42:58.040Z,4.63
2018-12-17T18:45:28.169Z,4.70
2018-12-17T18:51:06.038Z,4.70
2018-12-17T18:53:36.068Z,4.70
2018-12-17T18:56:12.828Z,4.75
2018-12-17T18:58:42.895Z,4.78
2018-12-17T19:01:18.282Z,4.77
2018-12-17T19:06:58.740Z,4.79
2018-12-17T19:09:28.806Z,4.79
2018-12-17T19:11:58.742Z,4.80
2018-12-17T19:14:34.542Z,4.89
2018-12-17T19:17:04.406Z,4.88
2018-12-17T19:19:34.416Z,4.87
2018-12-17T19:22:04.624Z,4.90
2018-12-17T19:24:48.472Z,4.91
2018-12-17T19:27:25.722Z,4.94
2018-12-17T19:29:56.156Z,4.94
2018-12-17T19:32:30.322Z,4.98
2018-12-17T19:35:05.699Z,4.99
2018-12-17T19:37:40.954Z,5.01
2018-12-17T19:40:11.169Z,5.04
2018-12-17T19:42:41.243Z,5.08
2018-12-17T19:45:16.588Z,5.10
2018-12-17T19:47:46.611Z,5.12
2018-12-17T19:50:16.715Z,5.11
2018-12-17T19:52:46.897Z,5.16
2018-12-17T19:55:22.825Z,5.14
2018-12-17T20:00:41.438Z,5.14
2018-12-17T20:03:12.072Z,5.17
2018-12-17T20:05:42.092Z,5.19
2018-12-17T20:08:20.584Z,5.20
2018-12-17T20:10:50.690Z,5.19
2018-12-17T20:13:20.778Z,5.26
2018-12-17T20:15:50.914Z,5.26
2018-12-17T20:18:26.276Z,5.24
2018-12-17T20:23:37.206Z,5.30
2018-12-17T20:26:08.510Z,5.27
2018-12-17T20:28:39.905Z,5.28
2018-12-17T20:31:12.757Z,5.25
2018-12-17T20:33:42.773Z,5.24
2018-12-17T20:36:12.758Z,5.24
2018-12-17T20:38:42.887Z,5.24
2018-12-17T20:41:13.290Z,5.26
2018-12-17T20:43:47.262Z,5.26
2018-12-17T20:46:17.284Z,5.26
2018-12-17T20:48:49.069Z,5.24
2018-12-17T20:51:21.143Z,5.29
2018-12-17T20:53:51.093Z,5.29
2018-12-17T20:56:21.246Z,5.34
2018-12-17T20:58:52.161Z,5.38
2018-12-17T21:01:25.614Z,5.38
2018-12-17T21:03:56.613Z,5.34
2018-12-17T21:06:49.866Z,5.33
2018-12-17T21:09:20.104Z,5.34
2018-12-17T21:12:03.597Z,5.33
2018-12-17T21:14:33.540Z,5.33
2018-12-17T21:20:12.183Z,5.38
2018-12-17T21:22:42.302Z,5.37
2018-12-17T21:25:12.317Z,5.39
2018-12-17T21:28:01.115Z,5.41
2018-12-17T21:30:37.304Z,5.40
2018-12-17T21:33:08.435Z,5.41
2018-12-17T21:35:38.401Z,5.42
2018-12-17T21:38:23.059Z,5.46
2018-12-17T21:40:53.163Z,5.45
2018-12-17T21:43:24.165Z,5.48
2018-12-17T21:45:54.249Z,5.50
2018-12-17T21:48:37.319Z,5.51
2018-12-17T21:51:11.175Z,5.51
2018-12-17T21:53:51.387Z,5.49
2018-12-17T21:56:23.471Z,5.52
2018-12-17T21:58:54.526Z,5.50
2018-12-17T22:01:40.910Z,5.52
2018-12-17T22:04:10.926Z,5.53
2018-12-17T22:06:41.113Z,5.51
2018-12-17T22:09:12.084Z,5.50
2018-12-17T22:11:48.403Z,5.52
2018-12-17T22:14:18.358Z,5.48
2018-12-17T22:16:48.461Z,5.51
2018-12-17T22:19:18.411Z,5.51
2018-12-17T22:21:54.177Z,5.50
2018-12-17T22:24:24.222Z,5.47
2018-12-17T22:26:54.178Z,5.46
2018-12-17T22:29:24.287Z,5.46
2018-12-17T22:32:10.802Z,5.45
2018-12-17T22:34:40.745Z,5.48
2018-12-17T22:37:14.489Z,5.45
2018-12-17T22:39:45.509Z,5.46
2018-12-17T22:42:16.557Z,5.51
2018-12-17T22:44:50.114Z,5.52
2018-12-17T22:47:37.540Z,5.53
2018-12-17T22:53:20.757Z,5.53
2018-12-17T22:55:50.819Z,5.55
2018-12-17T22:58:29.114Z,5.53
2018-12-17T23:00:59.438Z,5.52
2018-12-17T23:03:31.563Z,5.52
2018-12-17T23:06:01.791Z,5.54
2018-12-17T23:08:32.263Z,5.54
2018-12-17T23:11:13.579Z,5.56
2018-12-17T23:13:59.127Z,5.53
2018-12-17T23:16:44.874Z,5.53
2018-12-17T23:19:13.821Z,5.50
2018-12-17T23:21:45.913Z,5.49
2018-12-17T23:24:17.935Z,5.49
2018-12-17T23:26:48.178Z,5.51
2018-12-17T23:29:18.268Z,5.52
2018-12-17T23:31:53.762Z,5.53
2018-12-17T23:34:23.843Z,5.55
2018-12-17T23:36:54.320Z,5.56
2018-12-17T23:39:24.263Z,5.56
2018-12-17T23:41:59.421Z,5.56
2018-12-17T23:44:42.094Z,5.57
2018-12-17T23:47:12.272Z,5.56
2018-12-17T23:49:48.249Z,5.57
2018-12-17T23:52:18.229Z,5.58
2018-12-17T23:54:48.390Z,5.59
2018-12-17T23:57:18.407Z,5.60
2018-12-17T23:59:48.423Z,5.61
